sensor_id;sensor_type;location;lat;lon;timestamp;P1;durP1;ratioP1;P2;durP2;ratioP2
8952;SDS011;4511;50.890;8.054;2023-08-20T00:01:23;9.53;;;8.63;;
8952;SDS011;4511;50.890;8.054;2023-08-20T00:03:52;13.57;;;8.50;;
8952;SDS011;4511;50.890;8.054;2023-08-20T00:06:20;12.13;;;9.13;;
8952;SDS011;4511;50.890;8.054;2023-08-20T00:08:47;9.47;;;8.17;;
8952;SDS011;4511;50.890;8.054;2023-08-20T00:11:16;9.60;;;8.60;;
8952;SDS011;4511;50.890;8.054;2023-08-20T00:13:43;11.80;;;8.73;;
8952;SDS011;4511;50.890;8.054;2023-08-20T00:16:10;9.87;;;8.87;;
8952;SDS011;4511;50.890;8.054;2023-08-20T00:18:37;9.97;;;8.73;;
8952;SDS011;4511;50.890;8.054;2023-08-20T00:21:05;9.53;;;8.30;;
8952;SDS011;4511;50.890;8.054;2023-08-20T00:23:33;10.97;;;8.10;;
8952;SDS011;4511;50.890;8.054;2023-08-20T00:26:01;9.13;;;8.20;;
8952;SDS011;4511;50.890;8.054;2023-08-20T00:28:29;9.23;;;7.97;;
8952;SDS011;4511;50.890;8.054;2023-08-20T00:30:58;10.70;;;8.57;;
8952;SDS011;4511;50.890;8.054;2023-08-20T00:33:25;13.03;;;8.43;;
8952;SDS011;4511;50.890;8.054;2023-08-20T00:35:51;10.10;;;8.13;;
8952;SDS011;4511;50.890;8.054;2023-08-20T00:38:18;11.57;;;8.00;;
8952;SDS011;4511;50.890;8.054;2023-08-20T00:40:45;8.63;;;7.37;;
8952;SDS011;4511;50.890;8.054;2023-08-20T00:43:12;11.73;;;7.70;;
8952;SDS011;4511;50.890;8.054;2023-08-20T00:45:41;9.40;;;8.30;;
8952;SDS011;4511;50.890;8.054;2023-08-20T00:48:08;11.40;;;8.80;;
8952;SDS011;4511;50.890;8.054;2023-08-20T00:50:36;13.00;;;8.07;;
8952;SDS011;4511;50.890;8.054;2023-08-20T00:53:04;9.53;;;7.20;;
8952;SDS011;4511;50.890;8.054;2023-08-20T00:55:32;8.97;;;7.53;;
8952;SDS011;4511;50.890;8.054;2023-08-20T00:57:59;8.07;;;7.30;;
8952;SDS011;4511;50.890;8.054;2023-08-20T01:00:26;9.70;;;7.60;;
8952;SDS011;4511;50.890;8.054;2023-08-20T01:02:54;8.90;;;7.47;;
8952;SDS011;4511;50.890;8.054;2023-08-20T01:05:21;12.20;;;8.60;;
8952;SDS011;4511;50.890;8.054;2023-08-20T01:07:53;10.90;;;7.97;;
8952;SDS011;4511;50.890;8.054;2023-08-20T01:10:30;8.50;;;7.70;;
8952;SDS011;4511;50.890;8.054;2023-08-20T01:13:04;11.07;;;8.70;;
8952;SDS011;4511;50.890;8.054;2023-08-20T01:15:33;9.37;;;8.20;;
8952;SDS011;4511;50.890;8.054;2023-08-20T01:18:01;8.77;;;7.93;;
8952;SDS011;4511;50.890;8.054;2023-08-20T01:20:29;8.77;;;7.33;;
8952;SDS011;4511;50.890;8.054;2023-08-20T01:26:21;10.40;;;8.10;;
8952;SDS011;4511;50.890;8.054;2023-08-20T01:29:03;9.27;;;8.10;;
8952;SDS011;4511;50.890;8.054;2023-08-20T01:31:31;11.47;;;8.43;;
8952;SDS011;4511;50.890;8.054;2023-08-20T01:33:59;9.93;;;7.40;;
8952;SDS011;4511;50.890;8.054;2023-08-20T01:36:27;9.63;;;7.47;;
8952;SDS011;4511;50.890;8.054;2023-08-20T01:38:54;9.37;;;7.63;;
8952;SDS011;4511;50.890;8.054;2023-08-20T01:41:21;12.80;;;7.67;;
8952;SDS011;4511;50.890;8.054;2023-08-20T01:43:48;8.47;;;7.30;;
8952;SDS011;4511;50.890;8.054;2023-08-20T01:46:16;8.83;;;6.27;;
8952;SDS011;4511;50.890;8.054;2023-08-20T01:48:43;10.23;;;7.23;;
8952;SDS011;4511;50.890;8.054;2023-08-20T01:51:10;12.97;;;8.37;;
8952;SDS011;4511;50.890;8.054;2023-08-20T01:53:38;12.17;;;7.27;;
8952;SDS011;4511;50.890;8.054;2023-08-20T01:56:10;11.93;;;8.43;;
8952;SDS011;4511;50.890;8.054;2023-08-20T01:58:37;9.60;;;8.00;;
8952;SDS011;4511;50.890;8.054;2023-08-20T02:01:04;12.43;;;6.87;;
8952;SDS011;4511;50.890;8.054;2023-08-20T02:03:32;7.97;;;7.07;;
8952;SDS011;4511;50.890;8.054;2023-08-20T02:05:59;9.83;;;7.33;;
8952;SDS011;4511;50.890;8.054;2023-08-20T02:08:25;8.27;;;7.40;;
8952;SDS011;4511;50.890;8.054;2023-08-20T02:10:59;8.50;;;6.93;;
8952;SDS011;4511;50.890;8.054;2023-08-20T02:13:26;11.93;;;8.60;;
8952;SDS011;4511;50.890;8.054;2023-08-20T02:15:57;10.20;;;7.43;;
8952;SDS011;4511;50.890;8.054;2023-08-20T02:18:24;9.80;;;8.33;;
8952;SDS011;4511;50.890;8.054;2023-08-20T02:20:52;8.27;;;7.40;;
8952;SDS011;4511;50.890;8.054;2023-08-20T02:23:19;12.73;;;9.23;;
8952;SDS011;4511;50.890;8.054;2023-08-20T02:25:46;9.83;;;8.53;;
8952;SDS011;4511;50.890;8.054;2023-08-20T02:28:13;12.43;;;8.20;;
8952;SDS011;4511;50.890;8.054;2023-08-20T02:30:40;8.73;;;7.80;;
8952;SDS011;4511;50.890;8.054;2023-08-20T02:33:07;10.67;;;7.67;;
8952;SDS011;4511;50.890;8.054;2023-08-20T02:35:35;8.90;;;7.60;;
8952;SDS011;4511;50.890;8.054;2023-08-20T02:38:03;13.70;;;7.70;;
8952;SDS011;4511;50.890;8.054;2023-08-20T02:40:30;11.20;;;8.10;;
8952;SDS011;4511;50.890;8.054;2023-08-20T02:42:57;10.70;;;7.23;;
8952;SDS011;4511;50.890;8.054;2023-08-20T02:45:24;9.00;;;7.03;;
8952;SDS011;4511;50.890;8.054;2023-08-20T02:47:50;8.43;;;6.67;;
8952;SDS011;4511;50.890;8.054;2023-08-20T02:50:17;9.80;;;6.57;;
8952;SDS011;4511;50.890;8.054;2023-08-20T02:52:44;8.63;;;7.10;;
8952;SDS011;4511;50.890;8.054;2023-08-20T02:55:13;7.97;;;6.43;;
8952;SDS011;4511;50.890;8.054;2023-08-20T02:57:40;6.47;;;5.37;;
8952;SDS011;4511;50.890;8.054;2023-08-20T03:00:08;7.53;;;4.97;;
8952;SDS011;4511;50.890;8.054;2023-08-20T03:02:38;5.60;;;4.97;;
8952;SDS011;4511;50.890;8.054;2023-08-20T03:05:07;7.97;;;4.90;;
8952;SDS011;4511;50.890;8.054;2023-08-20T03:07:34;6.80;;;4.90;;
8952;SDS011;4511;50.890;8.054;2023-08-20T03:10:00;4.93;;;4.50;;
8952;SDS011;4511;50.890;8.054;2023-08-20T03:12:29;6.10;;;4.83;;
8952;SDS011;4511;50.890;8.054;2023-08-20T03:14:56;7.07;;;5.47;;
8952;SDS011;4511;50.890;8.054;2023-08-20T03:17:22;8.37;;;5.97;;
8952;SDS011;4511;50.890;8.054;2023-08-20T03:19:56;6.77;;;6.07;;
8952;SDS011;4511;50.890;8.054;2023-08-20T03:22:23;6.80;;;5.47;;
8952;SDS011;4511;50.890;8.054;2023-08-20T03:24:51;7.60;;;5.60;;
8952;SDS011;4511;50.890;8.054;2023-08-20T03:27:19;7.77;;;5.70;;
8952;SDS011;4511;50.890;8.054;2023-08-20T03:29:47;10.77;;;5.83;;
8952;SDS011;4511;50.890;8.054;2023-08-20T03:32:15;7.00;;;6.40;;
8952;SDS011;4511;50.890;8.054;2023-08-20T03:34:42;6.03;;;5.43;;
8952;SDS011;4511;50.890;8.054;2023-08-20T03:37:09;7.87;;;5.80;;
8952;SDS011;4511;50.890;8.054;2023-08-20T03:39:35;8.10;;;5.67;;
8952;SDS011;4511;50.890;8.054;2023-08-20T03:42:02;6.17;;;5.50;;
8952;SDS011;4511;50.890;8.054;2023-08-20T03:44:30;6.70;;;6.00;;
8952;SDS011;4511;50.890;8.054;2023-08-20T03:46:58;9.13;;;5.53;;
8952;SDS011;4511;50.890;8.054;2023-08-20T03:49:25;5.50;;;4.77;;
8952;SDS011;4511;50.890;8.054;2023-08-20T03:51:52;6.13;;;5.53;;
8952;SDS011;4511;50.890;8.054;2023-08-20T03:54:19;6.50;;;5.37;;
8952;SDS011;4511;50.890;8.054;2023-08-20T03:56:46;7.63;;;4.93;;
8952;SDS011;4511;50.890;8.054;2023-08-20T03:59:12;8.80;;;4.90;;
8952;SDS011;4511;50.890;8.054;2023-08-20T04:01:39;10.30;;;5.03;;
8952;SDS011;4511;50.890;8.054;2023-08-20T04:04:08;6.60;;;4.53;;
8952;SDS011;4511;50.890;8.054;2023-08-20T04:06:34;6.97;;;4.90;;
8952;SDS011;4511;50.890;8.054;2023-08-20T04:09:01;6.43;;;5.30;;
8952;SDS011;4511;50.890;8.054;2023-08-20T04:11:29;5.83;;;5.33;;
8952;SDS011;4511;50.890;8.054;2023-08-20T04:13:55;9.10;;;5.47;;
8952;SDS011;4511;50.890;8.054;2023-08-20T04:16:22;6.07;;;5.43;;
8952;SDS011;4511;50.890;8.054;2023-08-20T04:18:49;6.07;;;5.43;;
8952;SDS011;4511;50.890;8.054;2023-08-20T04:21:17;5.77;;;4.97;;
8952;SDS011;4511;50.890;8.054;2023-08-20T04:23:44;6.77;;;5.30;;
8952;SDS011;4511;50.890;8.054;2023-08-20T04:26:11;5.27;;;4.80;;
8952;SDS011;4511;50.890;8.054;2023-08-20T04:28:38;8.00;;;5.37;;
8952;SDS011;4511;50.890;8.054;2023-08-20T04:31:04;7.70;;;5.30;;
8952;SDS011;4511;50.890;8.054;2023-08-20T04:33:31;7.13;;;5.53;;
8952;SDS011;4511;50.890;8.054;2023-08-20T04:35:58;6.53;;;5.87;;
8952;SDS011;4511;50.890;8.054;2023-08-20T04:38:26;6.40;;;4.97;;
8952;SDS011;4511;50.890;8.054;2023-08-20T04:40:53;8.47;;;6.33;;
8952;SDS011;4511;50.890;8.054;2023-08-20T04:43:20;7.27;;;5.30;;
8952;SDS011;4511;50.890;8.054;2023-08-20T04:45:46;8.80;;;5.53;;
8952;SDS011;4511;50.890;8.054;2023-08-20T04:48:13;6.00;;;5.40;;
8952;SDS011;4511;50.890;8.054;2023-08-20T04:50:40;10.73;;;5.47;;
8952;SDS011;4511;50.890;8.054;2023-08-20T04:53:06;7.10;;;5.20;;
8952;SDS011;4511;50.890;8.054;2023-08-20T04:55:35;6.43;;;5.00;;
8952;SDS011;4511;50.890;8.054;2023-08-20T04:58:01;7.87;;;5.30;;
8952;SDS011;4511;50.890;8.054;2023-08-20T05:00:28;8.33;;;5.10;;
8952;SDS011;4511;50.890;8.054;2023-08-20T05:02:55;5.47;;;4.90;;
8952;SDS011;4511;50.890;8.054;2023-08-20T05:05:23;7.33;;;4.27;;
8952;SDS011;4511;50.890;8.054;2023-08-20T05:07:50;6.57;;;4.90;;
8952;SDS011;4511;50.890;8.054;2023-08-20T05:10:17;5.80;;;5.20;;
8952;SDS011;4511;50.890;8.054;2023-08-20T05:12:46;7.83;;;5.70;;
8952;SDS011;4511;50.890;8.054;2023-08-20T05:15:13;8.17;;;5.83;;
8952;SDS011;4511;50.890;8.054;2023-08-20T05:17:40;9.20;;;5.50;;
8952;SDS011;4511;50.890;8.054;2023-08-20T05:20:07;7.13;;;5.40;;
8952;SDS011;4511;50.890;8.054;2023-08-20T05:22:34;10.17;;;5.73;;
8952;SDS011;4511;50.890;8.054;2023-08-20T05:25:01;9.00;;;5.50;;
8952;SDS011;4511;50.890;8.054;2023-08-20T05:27:28;5.77;;;5.10;;
8952;SDS011;4511;50.890;8.054;2023-08-20T05:29:56;8.27;;;5.50;;
8952;SDS011;4511;50.890;8.054;2023-08-20T05:32:23;6.13;;;4.90;;
8952;SDS011;4511;50.890;8.054;2023-08-20T05:34:50;9.17;;;4.93;;
8952;SDS011;4511;50.890;8.054;2023-08-20T05:37:17;6.20;;;5.13;;
8952;SDS011;4511;50.890;8.054;2023-08-20T05:39:43;5.23;;;4.67;;
8952;SDS011;4511;50.890;8.054;2023-08-20T05:42:10;7.90;;;5.50;;
8952;SDS011;4511;50.890;8.054;2023-08-20T05:44:37;6.00;;;4.80;;
8952;SDS011;4511;50.890;8.054;2023-08-20T05:47:05;7.40;;;5.30;;
8952;SDS011;4511;50.890;8.054;2023-08-20T05:49:32;9.23;;;5.23;;
8952;SDS011;4511;50.890;8.054;2023-08-20T05:51:59;10.40;;;5.97;;
8952;SDS011;4511;50.890;8.054;2023-08-20T05:54:26;11.80;;;6.20;;
8952;SDS011;4511;50.890;8.054;2023-08-20T05:56:53;8.20;;;6.10;;
8952;SDS011;4511;50.890;8.054;2023-08-20T05:59:19;8.43;;;6.00;;
8952;SDS011;4511;50.890;8.054;2023-08-20T06:01:46;9.23;;;5.77;;
8952;SDS011;4511;50.890;8.054;2023-08-20T06:04:14;6.23;;;5.63;;
8952;SDS011;4511;50.890;8.054;2023-08-20T06:06:41;10.33;;;5.30;;
8952;SDS011;4511;50.890;8.054;2023-08-20T06:09:08;7.93;;;6.27;;
8952;SDS011;4511;50.890;8.054;2023-08-20T06:11:34;8.83;;;5.57;;
8952;SDS011;4511;50.890;8.054;2023-08-20T06:14:01;6.70;;;5.33;;
8952;SDS011;4511;50.890;8.054;2023-08-20T06:16:28;7.80;;;5.30;;
8952;SDS011;4511;50.890;8.054;2023-08-20T06:18:55;6.00;;;5.40;;
8952;SDS011;4511;50.890;8.054;2023-08-20T06:21:24;8.23;;;5.10;;
8952;SDS011;4511;50.890;8.054;2023-08-20T06:23:51;8.20;;;5.53;;
8952;SDS011;4511;50.890;8.054;2023-08-20T06:26:18;7.77;;;5.27;;
8952;SDS011;4511;50.890;8.054;2023-08-20T06:28:45;7.00;;;5.60;;
8952;SDS011;4511;50.890;8.054;2023-08-20T06:31:12;6.27;;;5.53;;
8952;SDS011;4511;50.890;8.054;2023-08-20T06:33:38;7.50;;;5.73;;
8952;SDS011;4511;50.890;8.054;2023-08-20T06:36:05;11.47;;;5.43;;
8952;SDS011;4511;50.890;8.054;2023-08-20T06:38:34;6.40;;;5.80;;
8952;SDS011;4511;50.890;8.054;2023-08-20T06:41:00;7.10;;;6.07;;
8952;SDS011;4511;50.890;8.054;2023-08-20T06:43:28;9.10;;;6.40;;
8952;SDS011;4511;50.890;8.054;2023-08-20T06:45:54;8.63;;;6.10;;
8952;SDS011;4511;50.890;8.054;2023-08-20T06:48:21;6.13;;;5.50;;
8952;SDS011;4511;50.890;8.054;2023-08-20T06:50:49;6.63;;;5.20;;
8952;SDS011;4511;50.890;8.054;2023-08-20T06:53:16;6.10;;;5.27;;
8952;SDS011;4511;50.890;8.054;2023-08-20T06:55:44;9.67;;;5.23;;
8952;SDS011;4511;50.890;8.054;2023-08-20T06:58:11;7.40;;;5.57;;
8952;SDS011;4511;50.890;8.054;2023-08-20T07:00:38;5.73;;;5.17;;
8952;SDS011;4511;50.890;8.054;2023-08-20T07:03:05;11.03;;;5.70;;
8952;SDS011;4511;50.890;8.054;2023-08-20T07:05:31;8.57;;;5.33;;
8952;SDS011;4511;50.890;8.054;2023-08-20T07:07:58;6.43;;;5.20;;
8952;SDS011;4511;50.890;8.054;2023-08-20T07:10:25;5.37;;;4.87;;
8952;SDS011;4511;50.890;8.054;2023-08-20T07:12:53;6.50;;;4.97;;
8952;SDS011;4511;50.890;8.054;2023-08-20T07:15:20;6.97;;;5.10;;
8952;SDS011;4511;50.890;8.054;2023-08-20T07:17:47;5.57;;;5.07;;
8952;SDS011;4511;50.890;8.054;2023-08-20T07:20:13;10.90;;;5.20;;
8952;SDS011;4511;50.890;8.054;2023-08-20T07:22:40;7.53;;;5.30;;
8952;SDS011;4511;50.890;8.054;2023-08-20T07:25:07;7.40;;;5.10;;
8952;SDS011;4511;50.890;8.054;2023-08-20T07:27:34;6.67;;;5.40;;
8952;SDS011;4511;50.890;8.054;2023-08-20T07:30:02;6.17;;;5.50;;
8952;SDS011;4511;50.890;8.054;2023-08-20T07:32:30;6.10;;;5.10;;
8952;SDS011;4511;50.890;8.054;2023-08-20T07:34:56;6.17;;;5.57;;
8952;SDS011;4511;50.890;8.054;2023-08-20T07:37:23;7.77;;;6.30;;
8952;SDS011;4511;50.890;8.054;2023-08-20T07:39:50;7.03;;;5.77;;
8952;SDS011;4511;50.890;8.054;2023-08-20T07:42:16;7.73;;;5.97;;
8952;SDS011;4511;50.890;8.054;2023-08-20T07:44:44;6.37;;;5.77;;
8952;SDS011;4511;50.890;8.054;2023-08-20T07:47:12;5.90;;;5.40;;
8952;SDS011;4511;50.890;8.054;2023-08-20T07:49:39;8.90;;;5.73;;
8952;SDS011;4511;50.890;8.054;2023-08-20T07:52:05;7.27;;;5.50;;
8952;SDS011;4511;50.890;8.054;2023-08-20T07:54:32;7.20;;;5.77;;
8952;SDS011;4511;50.890;8.054;2023-08-20T07:56:59;7.00;;;6.30;;
8952;SDS011;4511;50.890;8.054;2023-08-20T07:59:26;7.03;;;6.33;;
8952;SDS011;4511;50.890;8.054;2023-08-20T08:01:52;7.37;;;6.30;;
8952;SDS011;4511;50.890;8.054;2023-08-20T08:04:21;7.23;;;6.00;;
8952;SDS011;4511;50.890;8.054;2023-08-20T08:06:47;7.40;;;6.07;;
8952;SDS011;4511;50.890;8.054;2023-08-20T08:09:17;6.40;;;5.80;;
8952;SDS011;4511;50.890;8.054;2023-08-20T08:11:45;6.47;;;5.87;;
8952;SDS011;4511;50.890;8.054;2023-08-20T08:14:12;9.40;;;6.33;;
8952;SDS011;4511;50.890;8.054;2023-08-20T08:16:39;6.70;;;6.00;;
8952;SDS011;4511;50.890;8.054;2023-08-20T08:19:06;9.37;;;5.63;;
8952;SDS011;4511;50.890;8.054;2023-08-20T08:21:34;8.67;;;5.67;;
8952;SDS011;4511;50.890;8.054;2023-08-20T08:24:01;6.33;;;5.50;;
8952;SDS011;4511;50.890;8.054;2023-08-20T08:26:28;6.43;;;5.50;;
8952;SDS011;4511;50.890;8.054;2023-08-20T08:28:55;6.00;;;5.17;;
8952;SDS011;4511;50.890;8.054;2023-08-20T08:31:22;5.93;;;5.43;;
8952;SDS011;4511;50.890;8.054;2023-08-20T08:33:49;6.47;;;5.50;;
8952;SDS011;4511;50.890;8.054;2023-08-20T08:36:16;6.70;;;5.53;;
8952;SDS011;4511;50.890;8.054;2023-08-20T08:38:44;8.73;;;5.70;;
8952;SDS011;4511;50.890;8.054;2023-08-20T08:41:12;6.43;;;5.50;;
8952;SDS011;4511;50.890;8.054;2023-08-20T08:43:40;6.13;;;5.53;;
8952;SDS011;4511;50.890;8.054;2023-08-20T08:46:07;7.53;;;5.63;;
8952;SDS011;4511;50.890;8.054;2023-08-20T08:48:38;7.20;;;5.00;;
8952;SDS011;4511;50.890;8.054;2023-08-20T08:51:07;7.23;;;5.47;;
8952;SDS011;4511;50.890;8.054;2023-08-20T08:53:34;6.37;;;5.77;;
8952;SDS011;4511;50.890;8.054;2023-08-20T08:56:03;6.87;;;6.10;;
8952;SDS011;4511;50.890;8.054;2023-08-20T08:58:32;6.70;;;5.33;;
8952;SDS011;4511;50.890;8.054;2023-08-20T09:00:59;6.87;;;6.00;;
8952;SDS011;4511;50.890;8.054;2023-08-20T09:03:25;9.73;;;6.20;;
8952;SDS011;4511;50.890;8.054;2023-08-20T09:05:54;6.57;;;5.43;;
8952;SDS011;4511;50.890;8.054;2023-08-20T09:08:23;6.50;;;5.67;;
8952;SDS011;4511;50.890;8.054;2023-08-20T09:10:53;6.03;;;5.50;;
8952;SDS011;4511;50.890;8.054;2023-08-20T09:13:34;7.23;;;5.57;;
8952;SDS011;4511;50.890;8.054;2023-08-20T09:16:03;7.87;;;5.77;;
8952;SDS011;4511;50.890;8.054;2023-08-20T09:18:31;7.73;;;5.80;;
8952;SDS011;4511;50.890;8.054;2023-08-20T09:20:58;6.70;;;5.63;;
8952;SDS011;4511;50.890;8.054;2023-08-20T09:23:27;6.10;;;5.50;;
8952;SDS011;4511;50.890;8.054;2023-08-20T09:25:55;6.10;;;5.60;;
8952;SDS011;4511;50.890;8.054;2023-08-20T09:28:22;6.87;;;5.67;;
8952;SDS011;4511;50.890;8.054;2023-08-20T09:30:57;6.13;;;5.53;;
8952;SDS011;4511;50.890;8.054;2023-08-20T09:33:26;5.87;;;5.17;;
8952;SDS011;4511;50.890;8.054;2023-08-20T09:35:53;7.37;;;5.40;;
8952;SDS011;4511;50.890;8.054;2023-08-20T09:38:20;8.20;;;5.03;;
8952;SDS011;4511;50.890;8.054;2023-08-20T09:40:48;6.97;;;5.20;;
8952;SDS011;4511;50.890;8.054;2023-08-20T09:43:17;6.97;;;5.30;;
8952;SDS011;4511;50.890;8.054;2023-08-20T09:45:45;5.67;;;5.17;;
8952;SDS011;4511;50.890;8.054;2023-08-20T09:48:15;5.60;;;5.10;;
8952;SDS011;4511;50.890;8.054;2023-08-20T09:50:46;5.07;;;4.53;;
8952;SDS011;4511;50.890;8.054;2023-08-20T09:53:16;5.80;;;5.30;;
8952;SDS011;4511;50.890;8.054;2023-08-20T09:55:53;5.10;;;4.70;;
8952;SDS011;4511;50.890;8.054;2023-08-20T09:58:22;4.90;;;4.50;;
8952;SDS011;4511;50.890;8.054;2023-08-20T10:00:51;4.90;;;4.43;;
8952;SDS011;4511;50.890;8.054;2023-08-20T10:03:19;5.53;;;4.93;;
8952;SDS011;4511;50.890;8.054;2023-08-20T10:05:48;7.23;;;4.60;;
8952;SDS011;4511;50.890;8.054;2023-08-20T10:08:16;4.80;;;4.40;;
8952;SDS011;4511;50.890;8.054;2023-08-20T10:10:43;5.93;;;4.43;;
8952;SDS011;4511;50.890;8.054;2023-08-20T10:13:14;4.70;;;4.30;;
8952;SDS011;4511;50.890;8.054;2023-08-20T10:15:43;6.20;;;4.60;;
8952;SDS011;4511;50.890;8.054;2023-08-20T10:18:11;4.97;;;4.57;;
8952;SDS011;4511;50.890;8.054;2023-08-20T10:20:41;6.37;;;4.53;;
8952;SDS011;4511;50.890;8.054;2023-08-20T10:23:08;4.83;;;4.43;;
8952;SDS011;4511;50.890;8.054;2023-08-20T10:25:42;4.97;;;4.40;;
8952;SDS011;4511;50.890;8.054;2023-08-20T10:28:13;5.10;;;4.70;;
8952;SDS011;4511;50.890;8.054;2023-08-20T10:31:03;6.53;;;4.73;;
8952;SDS011;4511;50.890;8.054;2023-08-20T10:33:33;5.40;;;4.57;;
8952;SDS011;4511;50.890;8.054;2023-08-20T10:36:16;5.47;;;4.67;;
8952;SDS011;4511;50.890;8.054;2023-08-20T10:38:56;5.53;;;4.63;;
8952;SDS011;4511;50.890;8.054;2023-08-20T10:41:26;6.07;;;4.57;;
8952;SDS011;4511;50.890;8.054;2023-08-20T10:43:57;4.83;;;4.30;;
8952;SDS011;4511;50.890;8.054;2023-08-20T10:46:25;4.90;;;4.50;;
8952;SDS011;4511;50.890;8.054;2023-08-20T10:48:55;4.60;;;4.13;;
8952;SDS011;4511;50.890;8.054;2023-08-20T10:51:26;4.80;;;4.40;;
8952;SDS011;4511;50.890;8.054;2023-08-20T10:54:03;4.60;;;4.20;;
8952;SDS011;4511;50.890;8.054;2023-08-20T10:56:38;4.43;;;4.00;;
8952;SDS011;4511;50.890;8.054;2023-08-20T10:59:07;5.23;;;4.73;;
8952;SDS011;4511;50.890;8.054;2023-08-20T11:01:34;5.10;;;4.70;;
8952;SDS011;4511;50.890;8.054;2023-08-20T11:04:01;6.43;;;4.90;;
8952;SDS011;4511;50.890;8.054;2023-08-20T11:06:33;5.10;;;4.70;;
8952;SDS011;4511;50.890;8.054;2023-08-20T11:09:00;5.27;;;4.33;;
8952;SDS011;4511;50.890;8.054;2023-08-20T11:11:30;5.10;;;4.70;;
8952;SDS011;4511;50.890;8.054;2023-08-20T11:14:03;4.20;;;3.90;;
8952;SDS011;4511;50.890;8.054;2023-08-20T11:16:32;4.77;;;4.37;;
8952;SDS011;4511;50.890;8.054;2023-08-20T11:18:59;6.77;;;4.93;;
8952;SDS011;4511;50.890;8.054;2023-08-20T11:21:27;5.30;;;4.70;;
8952;SDS011;4511;50.890;8.054;2023-08-20T11:23:56;5.43;;;4.40;;
8952;SDS011;4511;50.890;8.054;2023-08-20T11:26:23;5.93;;;4.63;;
8952;SDS011;4511;50.890;8.054;2023-08-20T11:28:51;5.43;;;4.93;;
8952;SDS011;4511;50.890;8.054;2023-08-20T11:31:17;5.90;;;5.07;;
8952;SDS011;4511;50.890;8.054;2023-08-20T11:33:45;5.00;;;4.50;;
8952;SDS011;4511;50.890;8.054;2023-08-20T11:36:14;6.57;;;4.87;;
8952;SDS011;4511;50.890;8.054;2023-08-20T11:38:42;5.23;;;4.83;;
8952;SDS011;4511;50.890;8.054;2023-08-20T11:41:19;5.77;;;5.27;;
8952;SDS011;4511;50.890;8.054;2023-08-20T11:43:47;5.93;;;4.90;;
8952;SDS011;4511;50.890;8.054;2023-08-20T11:46:14;5.47;;;4.97;;
8952;SDS011;4511;50.890;8.054;2023-08-20T11:51:28;6.27;;;4.70;;
8952;SDS011;4511;50.890;8.054;2023-08-20T11:53:55;5.43;;;4.93;;
8952;SDS011;4511;50.890;8.054;2023-08-20T11:56:24;4.80;;;4.40;;
8952;SDS011;4511;50.890;8.054;2023-08-20T11:58:58;5.53;;;5.03;;
8952;SDS011;4511;50.890;8.054;2023-08-20T12:01:25;5.33;;;4.80;;
8952;SDS011;4511;50.890;8.054;2023-08-20T12:03:52;5.53;;;5.00;;
8952;SDS011;4511;50.890;8.054;2023-08-20T12:06:19;5.37;;;4.87;;
8952;SDS011;4511;50.890;8.054;2023-08-20T12:08:47;5.40;;;4.67;;
8952;SDS011;4511;50.890;8.054;2023-08-20T12:11:17;7.07;;;4.67;;
8952;SDS011;4511;50.890;8.054;2023-08-20T12:13:46;4.70;;;4.30;;
8952;SDS011;4511;50.890;8.054;2023-08-20T12:16:17;4.90;;;4.40;;
8952;SDS011;4511;50.890;8.054;2023-08-20T12:18:46;4.90;;;4.50;;
8952;SDS011;4511;50.890;8.054;2023-08-20T12:21:18;5.07;;;4.60;;
8952;SDS011;4511;50.890;8.054;2023-08-20T12:23:52;5.33;;;4.83;;
8952;SDS011;4511;50.890;8.054;2023-08-20T12:26:23;5.40;;;4.53;;
8952;SDS011;4511;50.890;8.054;2023-08-20T12:28:55;6.43;;;4.30;;
8952;SDS011;4511;50.890;8.054;2023-08-20T12:31:23;4.67;;;4.17;;
8952;SDS011;4511;50.890;8.054;2023-08-20T12:33:51;5.83;;;4.17;;
8952;SDS011;4511;50.890;8.054;2023-08-20T12:36:18;5.00;;;3.97;;
8952;SDS011;4511;50.890;8.054;2023-08-20T12:38:45;4.17;;;3.80;;
8952;SDS011;4511;50.890;8.054;2023-08-20T12:41:12;4.00;;;3.67;;
8952;SDS011;4511;50.890;8.054;2023-08-20T12:43:39;7.70;;;4.40;;
8952;SDS011;4511;50.890;8.054;2023-08-20T12:46:08;4.20;;;3.80;;
8952;SDS011;4511;50.890;8.054;2023-08-20T12:48:35;3.83;;;3.37;;
8952;SDS011;4511;50.890;8.054;2023-08-20T12:51:02;4.60;;;3.60;;
8952;SDS011;4511;50.890;8.054;2023-08-20T12:53:29;3.90;;;3.60;;
8952;SDS011;4511;50.890;8.054;2023-08-20T12:55:56;4.07;;;3.57;;
8952;SDS011;4511;50.890;8.054;2023-08-20T12:58:23;3.97;;;3.40;;
8952;SDS011;4511;50.890;8.054;2023-08-20T13:00:50;3.80;;;3.47;;
8952;SDS011;4511;50.890;8.054;2023-08-20T13:03:21;4.97;;;3.77;;
8952;SDS011;4511;50.890;8.054;2023-08-20T13:05:50;4.60;;;3.80;;
8952;SDS011;4511;50.890;8.054;2023-08-20T13:08:22;4.37;;;3.97;;
8952;SDS011;4511;50.890;8.054;2023-08-20T13:10:51;5.77;;;4.00;;
8952;SDS011;4511;50.890;8.054;2023-08-20T13:13:21;5.27;;;4.20;;
8952;SDS011;4511;50.890;8.054;2023-08-20T13:15:50;4.60;;;4.20;;
8952;SDS011;4511;50.890;8.054;2023-08-20T13:18:20;6.13;;;3.73;;
8952;SDS011;4511;50.890;8.054;2023-08-20T13:20:51;5.97;;;4.50;;
8952;SDS011;4511;50.890;8.054;2023-08-20T13:23:20;5.67;;;4.50;;
8952;SDS011;4511;50.890;8.054;2023-08-20T13:25:49;6.47;;;4.23;;
8952;SDS011;4511;50.890;8.054;2023-08-20T13:28:19;4.60;;;4.20;;
8952;SDS011;4511;50.890;8.054;2023-08-20T13:30:49;4.50;;;4.10;;
8952;SDS011;4511;50.890;8.054;2023-08-20T13:33:17;4.50;;;4.00;;
8952;SDS011;4511;50.890;8.054;2023-08-20T13:35:46;4.53;;;4.13;;
8952;SDS011;4511;50.890;8.054;2023-08-20T13:38:13;4.97;;;3.60;;
8952;SDS011;4511;50.890;8.054;2023-08-20T13:40:40;4.73;;;4.33;;
8952;SDS011;4511;50.890;8.054;2023-08-20T13:43:07;4.93;;;4.53;;
8952;SDS011;4511;50.890;8.054;2023-08-20T13:45:35;5.07;;;4.57;;
8952;SDS011;4511;50.890;8.054;2023-08-20T13:48:02;4.43;;;4.00;;
8952;SDS011;4511;50.890;8.054;2023-08-20T13:50:31;4.83;;;4.33;;
8952;SDS011;4511;50.890;8.054;2023-08-20T13:52:58;4.83;;;4.40;;
8952;SDS011;4511;50.890;8.054;2023-08-20T13:55:26;4.50;;;4.10;;
8952;SDS011;4511;50.890;8.054;2023-08-20T13:57:54;4.60;;;4.20;;
8952;SDS011;4511;50.890;8.054;2023-08-20T14:00:21;5.80;;;3.90;;
8952;SDS011;4511;50.890;8.054;2023-08-20T14:02:48;4.47;;;4.00;;
8952;SDS011;4511;50.890;8.054;2023-08-20T14:05:15;5.27;;;3.80;;
8952;SDS011;4511;50.890;8.054;2023-08-20T14:07:46;5.07;;;3.60;;
8952;SDS011;4511;50.890;8.054;2023-08-20T14:10:13;8.50;;;4.10;;
8952;SDS011;4511;50.890;8.054;2023-08-20T14:12:40;5.63;;;3.67;;
8952;SDS011;4511;50.890;8.054;2023-08-20T14:15:08;4.17;;;3.77;;
8952;SDS011;4511;50.890;8.054;2023-08-20T14:17:38;4.23;;;3.57;;
8952;SDS011;4511;50.890;8.054;2023-08-20T14:20:05;4.57;;;3.80;;
8952;SDS011;4511;50.890;8.054;2023-08-20T14:22:36;5.23;;;3.80;;
8952;SDS011;4511;50.890;8.054;2023-08-20T14:25:04;4.33;;;3.37;;
8952;SDS011;4511;50.890;8.054;2023-08-20T14:27:33;4.93;;;2.90;;
8952;SDS011;4511;50.890;8.054;2023-08-20T14:30:00;3.97;;;3.57;;
8952;SDS011;4511;50.890;8.054;2023-08-20T14:32:28;4.93;;;3.43;;
8952;SDS011;4511;50.890;8.054;2023-08-20T14:34:55;4.27;;;3.50;;
8952;SDS011;4511;50.890;8.054;2023-08-20T14:37:22;4.07;;;3.10;;
8952;SDS011;4511;50.890;8.054;2023-08-20T14:39:49;4.13;;;3.60;;
8952;SDS011;4511;50.890;8.054;2023-08-20T14:42:20;3.60;;;3.30;;
8952;SDS011;4511;50.890;8.054;2023-08-20T14:44:47;4.60;;;3.20;;
8952;SDS011;4511;50.890;8.054;2023-08-20T14:47:14;3.70;;;3.40;;
8952;SDS011;4511;50.890;8.054;2023-08-20T14:49:41;3.30;;;3.07;;
8952;SDS011;4511;50.890;8.054;2023-08-20T14:52:08;3.97;;;3.47;;
8952;SDS011;4511;50.890;8.054;2023-08-20T14:54:35;5.60;;;3.67;;
8952;SDS011;4511;50.890;8.054;2023-08-20T14:57:03;5.27;;;3.83;;
8952;SDS011;4511;50.890;8.054;2023-08-20T14:59:31;4.17;;;3.87;;
8952;SDS011;4511;50.890;8.054;2023-08-20T15:02:01;6.43;;;3.70;;
8952;SDS011;4511;50.890;8.054;2023-08-20T15:04:29;4.40;;;3.57;;
8952;SDS011;4511;50.890;8.054;2023-08-20T15:06:56;4.37;;;4.00;;
8952;SDS011;4511;50.890;8.054;2023-08-20T15:09:24;6.27;;;3.67;;
8952;SDS011;4511;50.890;8.054;2023-08-20T15:11:51;4.27;;;3.97;;
8952;SDS011;4511;50.890;8.054;2023-08-20T15:14:21;4.77;;;4.37;;
8952;SDS011;4511;50.890;8.054;2023-08-20T15:16:50;6.07;;;4.07;;
8952;SDS011;4511;50.890;8.054;2023-08-20T15:19:17;4.37;;;3.83;;
8952;SDS011;4511;50.890;8.054;2023-08-20T15:21:45;5.67;;;4.60;;
8952;SDS011;4511;50.890;8.054;2023-08-20T15:24:14;4.57;;;4.23;;
8952;SDS011;4511;50.890;8.054;2023-08-20T15:26:41;4.77;;;4.10;;